createdAt,value
2023-02-02T00:02:15.468Z,100300.53
2023-02-02T00:04:42.678Z,100308.41
2023-02-02T00:07:10.114Z,100330.13
2023-02-02T00:09:37.380Z,100324.94
2023-02-02T00:12:05.037Z,100323.34
2023-02-02T00:14:33.642Z,100333.81
2023-02-02T00:17:00.943Z,100346.56
2023-02-02T00:19:29.931Z,100345.25
2023-02-02T00:21:58.347Z,100359.16
2023-02-02T00:24:25.687Z,100357.88
2023-02-02T00:26:56.266Z,100342.53
2023-02-02T00:29:25.675Z,100337.97
2023-02-02T00:31:54.494Z,100337.50
2023-02-02T00:34:22.296Z,100329.19
2023-02-02T00:36:50.364Z,100342.13
2023-02-02T00:39:19.470Z,100329.03
2023-02-02T00:41:46.942Z,100336.50
2023-02-02T00:44:14.636Z,100342.81
2023-02-02T00:46:42.829Z,100346.00
2023-02-02T00:49:11.468Z,100359.53
2023-02-02T00:51:38.713Z,100373.38
2023-02-02T00:54:06.440Z,100388.69
2023-02-02T00:56:33.799Z,100412.47
2023-02-02T00:59:01.204Z,100392.38
2023-02-02T01:01:28.825Z,100408.63
2023-02-02T01:03:56.096Z,100418.00
2023-02-02T01:06:25.009Z,100444.16
2023-02-02T01:08:52.653Z,100430.88
2023-02-02T01:11:20.423Z,100421.13
2023-02-02T01:13:47.864Z,100469.41
2023-02-02T01:16:15.195Z,100446.25
2023-02-02T01:18:43.273Z,100505.66
2023-02-02T01:21:12.591Z,100474.84
2023-02-02T01:23:41.267Z,100504.06
2023-02-02T01:26:11.685Z,100487.47
2023-02-02T01:28:40.038Z,100522.31
2023-02-02T01:31:09.690Z,100508.00
2023-02-02T01:33:37.478Z,100529.75
2023-02-02T01:36:07.254Z,100531.72
2023-02-02T01:38:34.643Z,100542.56
2023-02-02T01:41:03.879Z,100557.59
2023-02-02T01:43:50.919Z,100562.75
2023-02-02T01:46:20.012Z,100570.19
2023-02-02T01:48:51.308Z,100576.91
2023-02-02T01:51:21.169Z,100583.97
2023-02-02T01:53:50.874Z,100590.75
2023-02-02T01:56:24.878Z,100604.13
2023-02-02T01:58:52.925Z,100596.91
2023-02-02T02:01:20.349Z,100594.91
2023-02-02T02:03:47.840Z,100590.22
2023-02-02T02:06:18.301Z,100600.06
2023-02-02T02:08:50.789Z,100598.88
2023-02-02T02:11:20.138Z,100602.06
2023-02-02T02:13:47.688Z,100594.19
2023-02-02T02:16:21.767Z,100606.06
2023-02-02T02:19:01.580Z,100604.53
2023-02-02T02:21:49.091Z,100607.78
2023-02-02T02:24:49.774Z,100619.63
2023-02-02T02:27:50.134Z,100625.94
2023-02-02T02:30:47.329Z,100643.41
2023-02-02T02:33:25.617Z,100631.22
2023-02-02T02:36:03.002Z,100642.66
2023-02-02T02:38:37.342Z,100648.06
2023-02-02T02:41:10.677Z,100662.25
2023-02-02T02:43:43.422Z,100678.03
2023-02-02T02:46:12.406Z,100674.88
2023-02-02T02:48:44.129Z,100673.25
2023-02-02T02:51:42.424Z,100705.25
2023-02-02T02:54:13.653Z,100692.09
2023-02-02T02:56:50.418Z,100681.47
2023-02-02T02:59:26.543Z,100696.88
2023-02-02T03:02:04.383Z,100709.56
2023-02-02T03:04:42.641Z,100713.84
2023-02-02T03:07:16.171Z,100718.31
2023-02-02T03:09:47.179Z,100735.69
2023-02-02T03:12:16.889Z,100738.84
2023-02-02T03:14:44.190Z,100741.66
2023-02-02T03:17:11.662Z,100750.72
2023-02-02T03:19:40.328Z,100764.50
2023-02-02T03:22:07.741Z,100757.91
2023-02-02T03:24:34.984Z,100763.47
2023-02-02T03:27:02.424Z,100772.59
2023-02-02T03:29:29.797Z,100779.31
2023-02-02T03:31:57.134Z,100787.16
2023-02-02T03:34:24.526Z,100788.81
2023-02-02T03:36:53.188Z,100791.63
2023-02-02T03:39:20.505Z,100796.84
2023-02-02T03:41:47.836Z,100802.41
2023-02-02T03:44:15.099Z,100804.41
2023-02-02T03:46:42.441Z,100820.53
2023-02-02T03:49:09.621Z,100826.53
2023-02-02T03:51:36.872Z,100838.41
2023-02-02T03:54:05.592Z,100847.91
2023-02-02T03:56:32.908Z,100853.88
2023-02-02T03:59:00.148Z,100858.19
2023-02-02T04:01:29.096Z,100874.34
2023-02-02T04:03:57.087Z,100880.31
2023-02-02T04:06:25.248Z,100891.75
2023-02-02T04:08:52.814Z,100896.88
2023-02-02T04:11:21.540Z,100895.72
2023-02-02T04:13:48.817Z,100902.84
2023-02-02T04:16:16.172Z,100902.44
2023-02-02T04:18:43.513Z,100913.88
2023-02-02T04:21:10.847Z,100920.59
2023-02-02T04:23:38.297Z,100918.59
2023-02-02T04:26:06.112Z,100933.59
2023-02-02T04:28:35.121Z,100932.00
2023-02-02T04:31:02.549Z,100932.00
2023-02-02T04:33:29.900Z,100936.75
2023-02-02T04:35:57.185Z,100944.25
2023-02-02T04:38:24.661Z,100946.22
2023-02-02T04:40:52.016Z,100939.94
2023-02-02T04:43:19.234Z,100933.59
2023-02-02T04:45:47.943Z,100923.78
2023-02-02T04:48:15.235Z,100929.66
2023-02-02T04:50:42.562Z,100943.13
2023-02-02T04:53:09.920Z,100932.06
2023-02-02T04:55:37.819Z,100936.41
2023-02-02T04:58:05.409Z,100939.97
2023-02-02T05:00:33.091Z,100950.22
2023-02-02T05:03:01.769Z,100951.00
2023-02-02T05:05:29.057Z,100951.78
2023-02-02T05:07:56.419Z,100963.63
2023-02-02T05:10:23.930Z,100952.56
2023-02-02T05:12:52.770Z,100958.91
2023-02-02T05:15:20.526Z,100951.00
2023-02-02T05:17:47.966Z,100966.78
2023-02-02T05:20:17.025Z,100962.06
2023-02-02T05:22:44.277Z,100963.22
2023-02-02T05:25:11.599Z,100969.94
2023-02-02T05:27:38.861Z,100969.94
2023-02-02T05:30:07.624Z,100973.09
2023-02-02T05:32:34.880Z,100970.72
2023-02-02T05:35:02.156Z,100975.06
2023-02-02T05:37:30.839Z,100982.56
2023-02-02T05:39:58.253Z,100983.75
2023-02-02T05:42:25.484Z,100979.03
2023-02-02T05:44:52.789Z,100990.47
2023-02-02T05:47:20.108Z,100996.00
2023-02-02T05:49:47.567Z,101007.41
2023-02-02T05:52:18.038Z,101016.47
2023-02-02T05:54:46.763Z,101025.16
2023-02-02T05:57:14.081Z,101034.22
2023-02-02T05:59:41.511Z,101038.16
2023-02-02T06:02:08.745Z,101041.72
2023-02-02T06:04:36.068Z,101047.22
2023-02-02T06:07:03.320Z,101048.81
2023-02-02T06:09:30.570Z,101055.13
2023-02-02T06:11:59.185Z,101055.13
2023-02-02T06:14:26.664Z,101060.63
2023-02-02T06:16:53.857Z,101078.00
2023-02-02T06:19:21.213Z,101088.22
2023-02-02T06:21:48.562Z,101098.88
2023-02-02T06:24:15.860Z,101098.09
2023-02-02T06:26:43.116Z,101119.38
2023-02-02T06:29:13.597Z,101122.13
2023-02-02T06:31:40.929Z,101122.94
2023-02-02T06:34:11.164Z,101137.50
2023-02-02T06:36:38.478Z,101148.53
2023-02-02T06:39:05.812Z,101153.69
2023-02-02T06:41:33.257Z,101165.50
2023-02-02T06:44:01.547Z,101169.06
2023-02-02T06:46:30.623Z,101179.69
2023-02-02T06:48:58.061Z,101197.44
2023-02-02T06:51:25.497Z,101196.25
2023-02-02T06:53:52.776Z,101199.00
2023-02-02T06:56:20.100Z,101200.22
2023-02-02T06:58:47.459Z,101203.75
2023-02-02T07:01:14.833Z,101204.94
2023-02-02T07:03:43.561Z,101201.00
2023-02-02T07:06:16.388Z,101209.28
2023-02-02T07:08:44.317Z,101196.28
2023-02-02T07:11:15.513Z,101206.91
2023-02-02T07:13:43.803Z,101201.38
2023-02-02T07:16:11.103Z,101206.91
2023-02-02T07:18:38.881Z,101203.34
2023-02-02T07:21:07.508Z,101208.91
2023-02-02T07:23:34.861Z,101210.47
2023-02-02T07:26:03.757Z,101216.00
2023-02-02T07:28:31.741Z,101217.56
2023-02-02T07:30:59.081Z,101222.31
2023-02-02T07:33:26.472Z,101229.41
2023-02-02T07:35:53.801Z,101225.84
2023-02-02T07:38:22.515Z,101227.06
2023-02-02T07:40:49.826Z,101233.38
2023-02-02T07:43:17.150Z,101229.44
2023-02-02T07:45:44.467Z,101231.00
2023-02-02T07:48:11.761Z,101235.75
2023-02-02T07:50:38.962Z,101235.38
2023-02-02T07:53:06.200Z,101227.84
2023-02-02T07:55:34.894Z,101229.84
2023-02-02T07:58:02.284Z,101229.06
2023-02-02T08:00:29.554Z,101234.19
2023-02-02T08:02:56.953Z,101245.63
2023-02-02T08:05:24.677Z,101237.34
2023-02-02T08:07:52.115Z,101233.41
2023-02-02T08:10:19.634Z,101236.16
2023-02-02T08:12:48.297Z,101237.75
2023-02-02T08:15:15.745Z,101239.75
2023-02-02T08:17:45.711Z,101228.69
2023-02-02T08:20:13.537Z,101229.09
2023-02-02T08:22:40.840Z,101222.75
2023-02-02T08:25:09.051Z,101217.25
2023-02-02T08:27:37.924Z,101222.75
2023-02-02T08:30:07.822Z,101204.59
2023-02-02T08:32:35.203Z,101208.94
2023-02-02T08:35:02.571Z,101200.25
2023-02-02T08:37:29.837Z,101190.38
2023-02-02T08:39:57.074Z,101205.78
2023-02-02T08:42:24.747Z,101202.63
2023-02-02T08:46:01.857Z,101191.56
2023-02-02T08:47:40.826Z,101169.44
2023-02-02T08:50:09.662Z,101174.94
2023-02-02T08:52:37.001Z,101171.00
2023-02-02T08:55:05.096Z,101178.09
2023-02-02T08:57:32.401Z,101180.88
2023-02-02T08:59:59.633Z,101182.00
2023-02-02T09:02:27.034Z,101158.28
2023-02-02T09:04:55.818Z,101161.41
2023-02-02T09:07:23.168Z,101179.56
2023-02-02T09:09:50.518Z,101174.03
2023-02-02T09:12:17.848Z,101170.00
2023-02-02T09:14:45.080Z,101152.59
2023-02-02T09:17:12.389Z,101157.38
2023-02-02T09:19:39.628Z,101150.19
2023-02-02T09:22:08.247Z,101146.91
2023-02-02T09:24:35.610Z,101148.56
2023-02-02T09:27:03.031Z,101135.88
2023-02-02T09:29:30.315Z,101131.91
2023-02-02T09:31:57.681Z,101131.94
2023-02-02T09:34:25.050Z,101138.25
2023-02-02T09:36:52.365Z,101131.50
2023-02-02T09:39:21.036Z,101140.53
2023-02-02T09:42:42.115Z,101122.31
2023-02-02T09:45:16.644Z,101110.84
2023-02-02T09:47:53.265Z,101116.78
2023-02-02T09:50:30.680Z,101123.09
2023-02-02T09:53:03.087Z,101126.09
2023-02-02T09:55:36.640Z,101120.59
2023-02-02T09:58:11.802Z,101118.56
2023-02-02T10:00:44.877Z,101119.72
2023-02-02T10:03:19.127Z,101120.13
2023-02-02T10:06:02.136Z,101124.06
2023-02-02T10:08:36.257Z,101113.28
2023-02-02T10:11:27.408Z,101093.91
2023-02-02T10:13:59.738Z,101093.06
2023-02-02T10:16:27.439Z,101101.75
2023-02-02T10:19:01.289Z,101107.75
2023-02-02T10:21:34.817Z,101105.34
2023-02-02T10:24:03.338Z,101101.31
2023-02-02T10:26:37.307Z,101097.38
2023-02-02T10:29:15.048Z,101091.81
2023-02-02T10:31:48.686Z,101053.09
2023-02-02T10:34:21.934Z,100985.78
2023-02-02T10:37:07.923Z,100934.31
2023-02-02T10:39:46.729Z,100896.09
2023-02-02T10:42:29.501Z,100921.59
2023-02-02T10:45:00.211Z,100936.53
2023-02-02T10:47:29.871Z,100947.56
2023-02-02T10:50:07.815Z,100972.34
2023-02-02T10:52:35.150Z,100998.06
2023-02-02T10:55:10.718Z,101017.03
2023-02-02T10:57:56.961Z,101032.75
2023-02-02T11:00:29.447Z,101040.69
2023-02-02T11:03:00.411Z,101046.97
2023-02-02T11:05:29.395Z,101047.13
2023-02-02T11:07:57.052Z,101062.69
2023-02-02T11:10:25.433Z,101074.03
2023-02-02T11:12:55.184Z,101093.81
2023-02-02T11:15:26.125Z,101104.19
2023-02-02T11:17:53.602Z,101096.56
2023-02-02T11:20:32.309Z,101103.94
2023-02-02T11:23:01.060Z,101110.25
2023-02-02T11:25:31.462Z,101090.50
2023-02-02T11:28:01.710Z,101065.41
2023-02-02T11:30:33.825Z,101044.25
2023-02-02T11:33:21.016Z,100988.25
2023-02-02T11:35:54.289Z,100952.97
2023-02-02T11:38:21.761Z,100920.50
2023-02-02T11:40:55.096Z,100869.94
2023-02-02T11:43:29.224Z,100867.28
2023-02-02T11:46:02.578Z,100877.47
2023-02-02T11:48:35.360Z,100900.88
2023-02-02T11:51:04.155Z,100929.63
2023-02-02T11:53:33.432Z,100944.47
2023-02-02T11:56:05.738Z,100955.28
2023-02-02T11:58:46.048Z,100976.50
2023-02-02T12:01:25.207Z,100987.00
2023-02-02T12:03:54.179Z,101005.31
2023-02-02T12:06:23.235Z,101016.78
2023-02-02T12:08:54.910Z,101026.19
2023-02-02T12:11:34.087Z,101026.66
2023-02-02T12:14:17.602Z,101031.66
2023-02-02T12:17:01.580Z,101031.31
2023-02-02T12:19:52.516Z,101032.47
2023-02-02T12:22:39.770Z,101026.63
2023-02-02T12:25:31.236Z,101037.22
2023-02-02T12:28:05.591Z,101029.88
2023-02-02T12:30:39.961Z,101038.53
2023-02-02T12:33:18.783Z,101028.69
2023-02-02T12:35:56.835Z,101029.03
2023-02-02T12:38:41.856Z,101030.00
2023-02-02T12:41:22.402Z,101033.34
2023-02-02T12:43:57.386Z,101043.25
2023-02-02T12:46:44.058Z,101038.81
2023-02-02T12:49:29.153Z,101036.78
2023-02-02T12:52:13.304Z,101027.72
2023-02-02T12:54:59.338Z,101021.66
2023-02-02T12:57:42.965Z,101023.59
2023-02-02T13:00:24.100Z,101006.91
2023-02-02T13:03:05.268Z,101002.75
2023-02-02T13:05:55.892Z,100971.91
2023-02-02T13:08:29.617Z,100909.28
2023-02-02T13:11:03.872Z,100883.28
2023-02-02T13:13:36.697Z,100896.56
2023-02-02T13:16:08.557Z,100890.81
2023-02-02T13:18:44.128Z,100901.25
2023-02-02T13:21:14.730Z,100888.38
2023-02-02T13:23:46.464Z,100869.72
2023-02-02T13:26:18.868Z,100850.88
2023-02-02T13:28:52.446Z,100849.56
2023-02-02T13:31:25.743Z,100862.44
2023-02-02T13:34:04.913Z,100874.59
2023-02-02T13:36:35.398Z,100901.25
2023-02-02T13:39:13.186Z,100908.19
2023-02-02T13:41:41.365Z,100922.91
2023-02-02T13:44:15.433Z,100935.66
2023-02-02T13:46:50.157Z,100934.47
2023-02-02T13:49:23.598Z,100931.06
2023-02-02T13:51:58.023Z,100934.09
2023-02-02T13:55:10.664Z,100933.88
2023-02-02T14:00:40.453Z,100946.81
2023-02-02T14:03:27.030Z,100953.66
2023-02-02T14:06:07.542Z,100955.34
2023-02-02T14:08:35.761Z,100967.69
2023-02-02T14:11:05.805Z,100975.78
2023-02-02T14:13:42.396Z,100977.72
2023-02-02T14:16:22.119Z,100970.09
2023-02-02T14:18:56.082Z,100965.97
2023-02-02T14:21:56.867Z,100951.72
2023-02-02T14:24:44.274Z,100931.75
2023-02-02T14:28:00.363Z,100933.03
2023-02-02T14:30:33.910Z,100930.75
2023-02-02T14:33:41.105Z,100921.56
2023-02-02T14:36:14.803Z,100921.09
2023-02-02T14:39:08.948Z,100940.91
2023-02-02T14:42:10.255Z,100952.88
2023-02-02T14:44:57.540Z,100959.25
2023-02-02T14:47:49.148Z,100975.78
2023-02-02T14:50:21.127Z,100990.38
2023-02-02T14:52:58.675Z,101005.63
2023-02-02T14:55:27.282Z,101029.72
2023-02-02T14:57:59.216Z,101029.81
2023-02-02T15:00:30.404Z,101032.22
2023-02-02T15:03:36.476Z,101040.66
2023-02-02T15:06:23.951Z,101051.75
2023-02-02T15:09:24.351Z,101059.84
2023-02-02T15:12:30.444Z,101065.38
2023-02-02T15:15:07.358Z,101074.94
2023-02-02T15:17:46.832Z,101089.66
2023-02-02T15:20:18.909Z,101091.78
2023-02-02T15:22:52.910Z,101103.75
2023-02-02T15:25:24.172Z,101113.94
2023-02-02T15:27:57.264Z,101114.78
2023-02-02T15:30:28.623Z,101129.47
2023-02-02T15:32:56.797Z,101146.97
2023-02-02T15:35:30.032Z,101156.16
2023-02-02T15:38:00.568Z,101154.56
2023-02-02T15:40:30.988Z,101170.50
2023-02-02T15:43:01.644Z,101180.44
2023-02-02T15:45:41.921Z,101185.56
2023-02-02T15:48:22.227Z,101203.03
2023-02-02T15:50:51.279Z,101211.72
2023-02-02T15:53:21.516Z,101218.81
2023-02-02T15:55:49.290Z,101216.47
2023-02-02T15:58:31.939Z,101230.31
2023-02-02T16:01:03.206Z,101244.34
2023-02-02T16:03:36.871Z,101256.66
2023-02-02T16:06:06.874Z,101258.25
2023-02-02T16:08:37.482Z,101271.34
2023-02-02T16:11:08.653Z,101271.31
2023-02-02T16:13:37.238Z,101277.72
2023-02-02T16:16:20.337Z,101297.09
2023-02-02T16:18:47.897Z,101292.41
2023-02-02T16:21:24.906Z,101299.44
2023-02-02T16:23:52.868Z,101296.28
2023-02-02T16:26:25.395Z,101297.13
2023-02-02T16:28:53.043Z,101301.03
2023-02-02T16:31:21.900Z,101313.34
2023-02-02T16:33:49.252Z,101318.50
2023-02-02T16:36:25.149Z,101324.50
2023-02-02T16:38:54.242Z,101336.38
2023-02-02T16:41:29.601Z,101341.94
2023-02-02T16:44:30.616Z,101344.34
2023-02-02T16:47:00.124Z,101358.66
2023-02-02T16:49:28.546Z,101364.25
2023-02-02T16:52:14.670Z,101371.00
2023-02-02T16:54:50.354Z,101378.53
2023-02-02T16:57:21.827Z,101391.97
2023-02-02T16:59:52.922Z,101395.97
2023-02-02T17:02:27.625Z,101399.16
2023-02-02T17:04:58.601Z,101413.38
2023-02-02T17:07:26.766Z,101414.22
2023-02-02T17:10:13.804Z,101443.53
2023-02-02T17:12:41.147Z,101451.44
2023-02-02T17:15:33.397Z,101470.84
2023-02-02T17:18:04.581Z,101498.13
2023-02-02T17:20:32.660Z,101509.22
2023-02-02T17:23:03.002Z,101514.34
2023-02-02T17:25:35.511Z,101541.25
2023-02-02T17:28:06.277Z,101552.31
2023-02-02T17:30:33.933Z,101561.78
2023-02-02T17:33:01.400Z,101564.56
2023-02-02T17:35:40.048Z,101567.72
2023-02-02T17:38:14.815Z,101579.97
2023-02-02T17:40:42.114Z,101574.03
2023-02-02T17:43:11.562Z,101589.06
2023-02-02T17:45:39.148Z,101611.94
2023-02-02T17:48:06.658Z,101608.00
2023-02-02T17:50:37.151Z,101602.47
2023-02-02T17:53:04.882Z,101604.44
2023-02-02T17:55:35.962Z,101613.50
2023-02-02T17:58:03.412Z,101612.72
2023-02-02T18:00:31.594Z,101617.06
2023-02-02T18:03:04.575Z,101606.75
2023-02-02T18:05:31.952Z,101605.56
2023-02-02T18:08:00.503Z,101616.59
2023-02-02T18:10:28.120Z,101612.59
2023-02-02T18:12:55.503Z,101604.31
2023-02-02T18:15:23.270Z,101609.06
2023-02-02T18:17:50.783Z,101608.25
2023-02-02T18:20:19.354Z,101599.56
2023-02-02T18:22:46.538Z,101583.75
2023-02-02T18:25:15.422Z,101588.91
2023-02-02T18:27:42.913Z,101581.38
2023-02-02T18:30:11.614Z,101566.78
2023-02-02T18:32:40.203Z,101554.13
2023-02-02T18:35:09.178Z,101543.06
2023-02-02T18:37:37.342Z,101531.22
2023-02-02T18:40:07.784Z,101530.41
2023-02-02T18:42:36.836Z,101515.41
2023-02-02T18:45:05.025Z,101509.09
2023-02-02T18:47:32.303Z,101505.91
2023-02-02T18:49:59.668Z,101496.44
2023-02-02T18:52:27.041Z,101490.13
2023-02-02T18:54:54.425Z,101482.22
2023-02-02T18:57:21.718Z,101488.53
2023-02-02T18:59:52.716Z,101488.53
2023-02-02T19:02:20.223Z,101488.94
2023-02-02T19:04:47.506Z,101494.44
2023-02-02T19:07:14.743Z,101494.88
2023-02-02T19:09:42.049Z,101487.75
2023-02-02T19:12:12.931Z,101481.44
2023-02-02T19:14:40.705Z,101490.13
2023-02-02T19:17:20.162Z,101484.59
2023-02-02T19:19:48.421Z,101500.78
2023-02-02T19:22:19.573Z,101512.22
2023-02-02T19:24:46.890Z,101526.84
2023-02-02T19:27:17.443Z,101554.88
2023-02-02T19:29:45.985Z,101566.34
2023-02-02T19:32:16.772Z,101588.06
2023-02-02T19:34:44.308Z,101603.06
2023-02-02T19:37:22.906Z,101634.69
2023-02-02T19:39:50.383Z,101669.00
2023-02-02T19:42:17.805Z,101690.72
2023-02-02T19:44:45.347Z,101736.97
2023-02-02T19:47:24.994Z,101787.50
2023-02-02T19:49:52.431Z,101822.72
2023-02-02T19:52:23.472Z,101865.75
2023-02-02T19:54:50.980Z,101900.16
2023-02-02T19:57:24.259Z,101947.88
2023-02-02T19:59:52.453Z,101972.34
2023-02-02T20:02:48.615Z,102002.75
2023-02-02T20:05:20.121Z,102019.38
2023-02-02T20:07:48.185Z,102046.66
2023-02-02T20:10:20.486Z,102066.78
2023-02-02T20:12:47.945Z,102083.38
2023-02-02T20:15:28.309Z,102105.59
2023-02-02T20:17:59.890Z,102127.22
2023-02-02T20:20:29.266Z,102148.25
2023-02-02T20:22:57.311Z,102169.13
2023-02-02T20:25:24.783Z,102174.34
2023-02-02T20:27:52.317Z,102192.56
2023-02-02T20:30:23.998Z,102220.59
2023-02-02T20:32:54.116Z,102229.75
2023-02-02T20:35:32.974Z,102246.25
2023-02-02T20:38:01.699Z,102270.47
2023-02-02T20:40:30.030Z,102284.34
2023-02-02T20:42:57.403Z,102302.53
2023-02-02T20:45:25.506Z,102323.91
2023-02-02T20:47:53.395Z,102337.31
2023-02-02T20:50:22.044Z,102357.06
2023-02-02T20:52:50.817Z,102364.69
2023-02-02T20:55:18.104Z,102381.00
2023-02-02T20:57:45.440Z,102394.41
2023-02-02T21:00:16.063Z,102409.13
2023-02-02T21:02:43.484Z,102424.97
2023-02-02T21:05:10.822Z,102437.28
2023-02-02T21:07:38.233Z,102450.75
2023-02-02T21:10:08.973Z,102473.34
2023-02-02T21:12:36.322Z,102492.81
2023-02-02T21:15:04.019Z,102508.75
2023-02-02T21:17:31.507Z,102510.50
2023-02-02T21:19:58.858Z,102526.34
2023-02-02T21:22:26.163Z,102532.44
2023-02-02T21:24:53.624Z,102554.28
2023-02-02T21:27:22.417Z,102560.63
2023-02-02T21:29:49.736Z,102573.34
2023-02-02T21:32:17.072Z,102567.88
2023-02-02T21:34:44.311Z,102582.28
2023-02-02T21:37:14.186Z,102587.06
2023-02-02T21:39:42.801Z,102599.91
2023-02-02T21:42:13.740Z,102616.53
2023-02-02T21:44:44.819Z,102608.66
2023-02-02T21:47:29.799Z,102617.09
2023-02-02T21:49:59.197Z,102615.34
2023-02-02T21:52:32.986Z,102626.16
2023-02-02T21:55:00.766Z,102626.59
2023-02-02T21:57:35.706Z,102636.94
2023-02-02T22:00:22.398Z,102638.69
2023-02-02T22:02:50.147Z,102653.03
2023-02-02T22:05:22.353Z,102655.06
2023-02-02T22:07:50.679Z,102678.25
2023-02-02T22:10:36.362Z,102670.88
2023-02-02T22:13:14.267Z,102686.06
2023-02-02T22:15:43.995Z,102685.31
2023-02-02T22:18:13.876Z,102700.44
2023-02-02T22:20:41.263Z,102708.91
2023-02-02T22:23:10.374Z,102718.88
2023-02-02T22:25:40.030Z,102727.66
2023-02-02T22:28:16.790Z,102753.47
2023-02-02T22:30:45.925Z,102755.59
2023-02-02T22:33:13.816Z,102776.13
2023-02-02T22:35:41.699Z,102775.13
2023-02-02T22:38:09.972Z,102806.88
2023-02-02T22:40:37.491Z,102805.66
2023-02-02T22:43:07.016Z,102815.16
2023-02-02T22:45:34.776Z,102823.91
2023-02-02T22:48:03.927Z,102801.75
2023-02-02T22:50:32.097Z,102829.53
2023-02-02T22:52:59.419Z,102830.34
2023-02-02T22:55:26.958Z,102809.66
2023-02-02T22:57:54.359Z,102804.09
2023-02-02T23:00:23.385Z,102800.16
2023-02-02T23:02:51.057Z,102809.69
2023-02-02T23:05:21.289Z,102782.75
2023-02-02T23:07:49.378Z,102794.66
2023-02-02T23:10:18.771Z,102795.47
2023-02-02T23:12:46.761Z,102790.78
2023-02-02T23:15:14.264Z,102772.53
2023-02-02T23:17:41.909Z,102746.41
2023-02-02T23:20:12.403Z,102711.03
2023-02-02T23:22:41.129Z,102693.19
2023-02-02T23:25:09.065Z,102640.09
2023-02-02T23:27:36.358Z,102590.09
2023-02-02T23:30:05.684Z,102526.19
2023-02-02T23:32:33.011Z,102475.03
2023-02-02T23:35:00.455Z,102432.16
2023-02-02T23:37:27.716Z,102367.50
2023-02-02T23:39:56.440Z,102304.41
2023-02-02T23:42:23.929Z,102241.31
2023-02-02T23:44:51.589Z,102177.44
2023-02-02T23:47:19.268Z,102095.28
2023-02-02T23:49:46.802Z,102027.81
2023-02-02T23:52:14.644Z,101942.47
2023-02-02T23:54:42.294Z,101872.63
2023-02-02T23:57:11.228Z,101833.72
2023-02-02T23:59:38.658Z,101794.84
